createdAt,value
2018-05-05T00:02:00.134Z,7.03
2018-05-05T00:04:26.405Z,6.27
2018-05-05T00:06:52.704Z,6.60
2018-05-05T00:09:19.788Z,6.20
2018-05-05T00:11:46.090Z,6.03
2018-05-05T00:14:13.117Z,6.87
2018-05-05T00:16:39.407Z,9.43
2018-05-05T00:19:06.566Z,7.20
2018-05-05T00:21:32.864Z,7.10
2018-05-05T00:23:59.128Z,7.00
2018-05-05T00:26:25.452Z,5.67
2018-05-05T00:28:51.718Z,6.73
2018-05-05T00:31:18.770Z,6.73
2018-05-05T00:33:45.073Z,6.67
2018-05-05T00:36:11.384Z,6.87
2018-05-05T00:38:37.710Z,7.07
2018-05-05T00:41:04.041Z,6.13
2018-05-05T00:43:30.415Z,6.83
2018-05-05T00:45:56.740Z,7.10
2018-05-05T00:48:23.077Z,7.60
2018-05-05T00:50:49.370Z,6.73
2018-05-05T00:53:15.729Z,7.40
2018-05-05T00:55:42.047Z,6.60
2018-05-05T00:58:08.391Z,6.10
2018-05-05T01:00:34.673Z,7.93
2018-05-05T01:03:01.027Z,7.40
2018-05-05T01:05:27.370Z,6.90
2018-05-05T01:07:53.673Z,8.20
2018-05-05T01:10:19.941Z,7.73
2018-05-05T01:12:46.258Z,7.33
2018-05-05T01:15:12.521Z,8.20
2018-05-05T01:17:38.810Z,10.83
2018-05-05T01:20:05.142Z,9.63
2018-05-05T01:22:31.525Z,11.07
2018-05-05T01:24:57.830Z,8.00
2018-05-05T01:27:24.118Z,6.70
2018-05-05T01:29:50.446Z,6.77
2018-05-05T01:32:16.774Z,7.83
2018-05-05T01:34:43.022Z,7.80
2018-05-05T01:37:09.297Z,8.27
2018-05-05T01:39:35.624Z,8.80
2018-05-05T01:42:01.908Z,8.20
2018-05-05T01:44:28.202Z,8.33
2018-05-05T01:46:54.500Z,6.67
2018-05-05T01:49:20.892Z,7.17
2018-05-05T01:51:47.228Z,7.07
2018-05-05T01:54:13.515Z,7.10
2018-05-05T01:56:39.813Z,7.68
2018-05-05T01:59:06.198Z,6.20
2018-05-05T02:01:33.236Z,7.53
2018-05-05T02:04:00.299Z,7.70
2018-05-05T02:06:26.673Z,6.20
2018-05-05T02:08:53.725Z,5.30
2018-05-05T02:11:20.066Z,5.40
2018-05-05T02:13:46.357Z,7.23
2018-05-05T02:16:12.684Z,6.73
2018-05-05T02:18:39.716Z,6.60
2018-05-05T02:21:06.043Z,5.77
2018-05-05T02:23:33.098Z,5.18
2018-05-05T02:25:59.420Z,6.72
2018-05-05T02:28:26.438Z,7.07
2018-05-05T02:30:52.818Z,7.57
2018-05-05T02:33:19.095Z,4.80
2018-05-05T02:35:46.182Z,7.77
2018-05-05T02:38:13.190Z,6.10
2018-05-05T02:40:39.490Z,6.35
2018-05-05T02:43:05.813Z,5.28
2018-05-05T02:45:32.135Z,5.68
2018-05-05T02:47:58.485Z,5.27
2018-05-05T02:50:25.528Z,5.90
2018-05-05T02:52:51.826Z,5.30
2018-05-05T02:55:18.880Z,5.30
2018-05-05T02:57:45.909Z,4.87
2018-05-05T03:00:12.175Z,6.15
2018-05-05T03:02:38.535Z,7.80
2018-05-05T03:05:04.831Z,5.18
2018-05-05T03:07:31.155Z,5.40
2018-05-05T03:09:58.158Z,6.00
2018-05-05T03:12:25.222Z,5.57
2018-05-05T03:14:51.530Z,5.35
2018-05-05T03:17:17.877Z,5.65
2018-05-05T03:19:45.010Z,5.25
2018-05-05T03:22:11.321Z,5.62
2018-05-05T03:24:37.614Z,6.70
2018-05-05T03:27:04.638Z,5.45
2018-05-05T03:29:30.942Z,7.80
2018-05-05T03:31:57.237Z,5.57
2018-05-05T03:34:24.273Z,5.15
2018-05-05T03:36:51.291Z,5.35
2018-05-05T03:39:17.589Z,6.32
2018-05-05T03:41:44.714Z,5.65
2018-05-05T03:44:10.985Z,5.90
2018-05-05T03:46:37.317Z,5.12
2018-05-05T03:49:03.618Z,6.70
2018-05-05T03:51:29.909Z,4.25
2018-05-05T03:53:56.230Z,5.00
2018-05-05T03:56:22.520Z,5.90
2018-05-05T04:02:03.812Z,5.60
2018-05-05T04:04:30.515Z,4.72
2018-05-05T04:06:56.765Z,4.55
2018-05-05T04:09:23.072Z,4.68
2018-05-05T04:11:49.360Z,5.45
2018-05-05T04:14:16.717Z,4.47
2018-05-05T04:16:43.014Z,4.37
2018-05-05T04:19:10.057Z,5.53
2018-05-05T04:21:37.118Z,4.50
2018-05-05T04:24:03.383Z,5.18
2018-05-05T04:26:29.687Z,4.55
2018-05-05T04:28:55.969Z,4.95
2018-05-05T04:31:22.281Z,4.90
2018-05-05T04:33:48.562Z,5.57
2018-05-05T04:36:14.890Z,5.20
2018-05-05T04:38:41.911Z,5.10
2018-05-05T04:41:08.963Z,4.35
2018-05-05T04:43:36.053Z,4.82
2018-05-05T04:46:02.342Z,5.28
2018-05-05T04:48:29.378Z,5.07
2018-05-05T04:50:55.826Z,4.53
2018-05-05T04:53:22.850Z,26.00
2018-05-05T04:55:49.199Z,4.85
2018-05-05T04:58:16.263Z,4.97
2018-05-05T05:00:43.306Z,5.50
2018-05-05T05:03:10.390Z,4.40
2018-05-05T05:05:36.656Z,4.85
2018-05-05T05:08:02.975Z,4.45
2018-05-05T05:10:29.291Z,5.40
2018-05-05T05:12:55.614Z,5.20
2018-05-05T05:15:21.877Z,5.10
2018-05-05T05:17:48.186Z,5.60
2018-05-05T05:20:14.485Z,4.18
2018-05-05T05:22:40.766Z,4.32
2018-05-05T05:25:07.066Z,3.87
2018-05-05T05:27:33.346Z,4.55
2018-05-05T05:29:59.629Z,4.15
2018-05-05T05:32:25.918Z,4.68
2018-05-05T05:34:52.964Z,4.15
2018-05-05T05:37:19.981Z,4.05
2018-05-05T05:39:46.303Z,4.12
2018-05-05T05:42:12.605Z,4.53
2018-05-05T05:44:38.920Z,4.67
2018-05-05T05:47:05.233Z,4.32
2018-05-05T05:49:32.326Z,4.30
2018-05-05T05:51:58.626Z,4.53
2018-05-05T05:54:25.658Z,4.70
2018-05-05T05:56:52.676Z,4.17
2018-05-05T05:59:19.018Z,3.42
2018-05-05T06:01:45.325Z,3.87
2018-05-05T06:04:11.631Z,3.30
2018-05-05T06:06:37.964Z,3.33
2018-05-05T06:09:04.356Z,3.70
2018-05-05T06:11:31.410Z,3.50
2018-05-05T06:13:58.449Z,3.43
2018-05-05T06:16:24.769Z,3.20
2018-05-05T06:18:51.070Z,3.10
2018-05-05T06:21:17.395Z,3.13
2018-05-05T06:23:44.414Z,3.30
2018-05-05T06:26:10.702Z,6.40
2018-05-05T06:28:37.007Z,3.60
2018-05-05T06:31:03.490Z,3.37
2018-05-05T06:33:29.775Z,3.20
2018-05-05T06:35:56.057Z,3.67
2018-05-05T06:38:23.090Z,3.03
2018-05-05T06:40:49.361Z,4.20
2018-05-05T06:43:15.671Z,2.97
2018-05-05T06:45:42.014Z,3.83
2018-05-05T06:48:08.315Z,2.87
2018-05-05T06:50:35.335Z,2.53
2018-05-05T06:53:01.647Z,2.77
2018-05-05T06:55:27.955Z,2.93
2018-05-05T06:57:54.263Z,3.63
2018-05-05T07:00:21.343Z,2.57
2018-05-05T07:02:47.662Z,2.80
2018-05-05T07:05:13.951Z,2.60
2018-05-05T07:07:40.314Z,2.30
2018-05-05T07:10:07.671Z,2.67
2018-05-05T07:12:34.683Z,2.30
2018-05-05T07:15:01.436Z,3.00
2018-05-05T07:17:27.754Z,2.60
2018-05-05T07:19:54.762Z,2.20
2018-05-05T07:22:21.074Z,3.17
2018-05-05T07:24:47.387Z,2.33
2018-05-05T07:27:14.423Z,2.63
2018-05-05T07:29:40.765Z,2.23
2018-05-05T07:32:07.087Z,2.63
2018-05-05T07:34:34.189Z,2.43
2018-05-05T07:37:00.495Z,2.40
2018-05-05T07:39:26.822Z,2.13
2018-05-05T07:41:53.890Z,2.20
2018-05-05T07:44:20.260Z,2.10
2018-05-05T07:46:46.553Z,2.60
2018-05-05T07:49:12.866Z,2.30
2018-05-05T07:51:39.896Z,2.00
2018-05-05T07:54:06.983Z,2.40
2018-05-05T07:56:33.367Z,2.47
2018-05-05T07:59:00.407Z,2.63
2018-05-05T08:01:26.708Z,2.20
2018-05-05T08:03:52.986Z,5.30
2018-05-05T08:06:20.026Z,4.07
2018-05-05T08:08:47.071Z,3.23
2018-05-05T08:11:13.411Z,2.90
2018-05-05T08:13:40.462Z,2.20
2018-05-05T08:16:07.551Z,1.70
2018-05-05T08:18:33.838Z,2.10
2018-05-05T08:21:00.907Z,2.30
2018-05-05T08:23:27.287Z,2.10
2018-05-05T08:25:53.594Z,1.50
2018-05-05T08:28:19.872Z,1.70
2018-05-05T08:30:46.148Z,1.93
2018-05-05T08:33:12.560Z,2.33
2018-05-05T08:35:38.955Z,2.10
2018-05-05T08:38:08.794Z,2.33
2018-05-05T08:40:35.075Z,2.30
2018-05-05T08:43:02.322Z,2.60
2018-05-05T08:45:29.410Z,2.60
2018-05-05T08:47:55.766Z,2.00
2018-05-05T08:50:22.912Z,2.00
2018-05-05T08:52:49.327Z,1.87
2018-05-05T08:55:16.512Z,2.07
2018-05-05T08:57:43.766Z,2.60
2018-05-05T09:00:11.215Z,2.63
2018-05-05T09:02:37.543Z,1.73
2018-05-05T09:05:04.715Z,3.23
2018-05-05T09:07:32.046Z,3.20
2018-05-05T09:09:58.501Z,2.43
2018-05-05T09:12:26.530Z,2.90
2018-05-05T09:14:53.573Z,2.17
2018-05-05T09:17:20.923Z,2.10
2018-05-05T09:19:47.360Z,2.20
2018-05-05T09:22:14.476Z,2.00
2018-05-05T09:24:41.059Z,2.20
2018-05-05T09:27:08.233Z,1.97
2018-05-05T09:29:34.547Z,2.30
2018-05-05T09:32:00.841Z,2.23
2018-05-05T09:34:27.154Z,2.40
2018-05-05T09:36:53.440Z,2.40
2018-05-05T09:39:20.470Z,2.40
2018-05-05T09:41:46.755Z,1.87
2018-05-05T09:44:13.054Z,2.90
2018-05-05T09:46:40.100Z,2.30
2018-05-05T09:49:06.454Z,2.00
2018-05-05T09:51:32.774Z,2.80
2018-05-05T09:53:59.085Z,2.10
2018-05-05T09:56:26.136Z,1.90
2018-05-05T09:58:52.430Z,1.83
2018-05-05T10:01:18.762Z,2.50
2018-05-05T10:03:45.059Z,3.63
2018-05-05T10:06:11.383Z,2.80
2018-05-05T10:08:37.719Z,2.70
2018-05-05T10:11:04.049Z,2.70
2018-05-05T10:13:30.333Z,2.50
2018-05-05T10:15:56.808Z,2.77
2018-05-05T10:18:23.882Z,2.97
2018-05-05T10:20:50.221Z,3.40
2018-05-05T10:23:16.534Z,1.90
2018-05-05T10:25:42.843Z,2.40
2018-05-05T10:28:09.166Z,3.10
2018-05-05T10:30:35.477Z,13.13
2018-05-05T10:33:02.538Z,2.87
2018-05-05T10:35:29.659Z,2.83
2018-05-05T10:37:56.711Z,14.50
2018-05-05T10:40:23.011Z,20.20
2018-05-05T10:42:49.406Z,2.37
2018-05-05T10:45:15.722Z,4.43
2018-05-05T10:47:42.789Z,1.77
2018-05-05T10:50:09.092Z,2.10
2018-05-05T10:52:36.193Z,1.80
2018-05-05T10:55:02.549Z,2.50
2018-05-05T10:57:29.602Z,3.47
2018-05-05T10:59:55.908Z,2.70
2018-05-05T11:02:22.262Z,3.33
2018-05-05T11:04:48.561Z,2.40
2018-05-05T11:07:14.826Z,2.60
2018-05-05T11:09:41.282Z,2.40
2018-05-05T11:12:08.304Z,4.30
2018-05-05T11:14:34.667Z,2.93
2018-05-05T11:17:01.696Z,2.13
2018-05-05T11:19:28.048Z,4.60
2018-05-05T11:21:54.311Z,3.50
2018-05-05T11:24:20.638Z,5.07
2018-05-05T11:26:47.019Z,3.10
2018-05-05T11:29:13.334Z,2.57
2018-05-05T11:31:39.662Z,4.47
2018-05-05T11:34:05.978Z,3.27
2018-05-05T11:36:32.297Z,4.00
2018-05-05T11:38:58.632Z,3.43
2018-05-05T11:41:25.230Z,2.57
2018-05-05T11:43:51.541Z,3.27
2018-05-05T11:46:18.598Z,1.80
2018-05-05T11:48:45.637Z,4.70
2018-05-05T11:51:12.992Z,3.20
2018-05-05T11:53:39.304Z,2.13
2018-05-05T11:56:05.715Z,1.90
2018-05-05T11:58:31.969Z,2.17
2018-05-05T12:00:58.270Z,2.83
2018-05-05T12:03:24.566Z,2.47
2018-05-05T12:05:51.605Z,1.73
2018-05-05T12:08:17.981Z,1.93
2018-05-05T12:10:44.352Z,1.90
2018-05-05T12:13:10.602Z,1.50
2018-05-05T12:15:37.630Z,1.50
2018-05-05T12:18:03.936Z,2.50
2018-05-05T12:20:30.262Z,2.10
2018-05-05T12:22:56.576Z,3.40
2018-05-05T12:25:22.855Z,2.67
2018-05-05T12:27:49.214Z,2.00
2018-05-05T12:30:16.254Z,2.37
2018-05-05T12:32:43.355Z,2.60
2018-05-05T12:35:09.696Z,2.33
2018-05-05T12:37:35.983Z,2.07
2018-05-05T12:40:02.382Z,2.37
2018-05-05T12:42:28.711Z,1.53
2018-05-05T12:44:55.901Z,2.57
2018-05-05T12:47:22.202Z,4.00
2018-05-05T12:49:49.263Z,4.60
2018-05-05T12:52:16.272Z,2.07
2018-05-05T12:54:43.354Z,1.90
2018-05-05T12:57:10.386Z,5.70
2018-05-05T12:59:36.781Z,3.03
2018-05-05T13:02:03.019Z,2.70
2018-05-05T13:04:29.315Z,2.00
2018-05-05T13:06:55.623Z,1.80
2018-05-05T13:09:21.934Z,1.90
2018-05-05T13:11:48.202Z,2.37
2018-05-05T13:14:14.498Z,3.20
2018-05-05T13:16:40.778Z,1.90
2018-05-05T13:19:07.079Z,2.57
2018-05-05T13:21:34.142Z,4.20
2018-05-05T13:24:00.476Z,4.70
2018-05-05T13:26:26.865Z,2.53
2018-05-05T13:28:53.151Z,2.13
2018-05-05T13:31:19.470Z,3.50
2018-05-05T13:33:45.852Z,8.60
2018-05-05T13:36:12.158Z,5.13
2018-05-05T13:38:38.494Z,2.10
2018-05-05T13:41:04.814Z,1.83
2018-05-05T13:43:31.158Z,1.80
2018-05-05T13:45:57.651Z,4.60
2018-05-05T13:48:23.817Z,3.20
2018-05-05T13:50:50.162Z,1.90
2018-05-05T13:53:16.446Z,2.30
2018-05-05T13:55:42.739Z,2.07
2018-05-05T13:58:09.042Z,1.87
2018-05-05T14:00:36.420Z,2.50
2018-05-05T14:03:03.515Z,1.60
2018-05-05T14:05:29.785Z,3.10
2018-05-05T14:07:56.139Z,2.87
2018-05-05T14:10:22.430Z,2.87
2018-05-05T14:12:48.753Z,4.10
2018-05-05T14:15:15.070Z,3.40
2018-05-05T14:17:41.339Z,2.63
2018-05-05T14:20:07.716Z,2.80
2018-05-05T14:22:34.051Z,2.70
2018-05-05T14:25:00.379Z,4.20
2018-05-05T14:27:26.704Z,2.80
2018-05-05T14:29:53.007Z,4.50
2018-05-05T14:32:19.376Z,4.00
2018-05-05T14:34:45.687Z,4.70
2018-05-05T14:37:12.742Z,2.23
2018-05-05T14:39:39.793Z,3.40
2018-05-05T14:42:06.095Z,2.17
2018-05-05T14:44:32.427Z,1.80
2018-05-05T14:46:59.457Z,3.30
2018-05-05T14:49:25.788Z,3.00
2018-05-05T14:51:52.086Z,2.70
2018-05-05T14:54:18.366Z,2.43
2018-05-05T14:56:44.678Z,2.80
2018-05-05T14:59:11.002Z,2.50
2018-05-05T15:01:38.042Z,2.20
2018-05-05T15:04:04.399Z,2.47
2018-05-05T15:06:30.867Z,2.60
2018-05-05T15:08:57.277Z,2.20
2018-05-05T15:11:23.556Z,5.00
2018-05-05T15:13:49.851Z,4.60
2018-05-05T15:16:16.894Z,3.23
2018-05-05T15:18:43.968Z,2.83
2018-05-05T15:21:10.328Z,3.07
2018-05-05T15:23:36.646Z,2.27
2018-05-05T15:26:02.991Z,3.40
2018-05-05T15:28:29.404Z,4.87
2018-05-05T15:30:55.726Z,2.83
2018-05-05T15:33:22.020Z,2.53
2018-05-05T15:35:48.358Z,3.30
2018-05-05T15:38:15.410Z,2.07
2018-05-05T15:40:42.675Z,9.13
2018-05-05T15:43:08.998Z,3.27
2018-05-05T15:45:36.115Z,2.10
2018-05-05T15:48:02.375Z,4.23
2018-05-05T15:50:29.516Z,2.50
2018-05-05T15:52:56.602Z,3.37
2018-05-05T15:55:22.910Z,3.30
2018-05-05T15:57:49.950Z,1.90
2018-05-05T16:00:17.002Z,9.07
2018-05-05T16:02:44.762Z,9.27
2018-05-05T16:05:11.782Z,6.03
2018-05-05T16:07:38.115Z,2.27
2018-05-05T16:10:04.458Z,4.90
2018-05-05T16:12:30.754Z,3.47
2018-05-05T16:14:57.075Z,10.83
2018-05-05T16:17:23.422Z,9.00
2018-05-05T16:19:49.725Z,2.30
2018-05-05T16:22:16.307Z,2.80
2018-05-05T16:24:42.590Z,2.73
2018-05-05T16:27:08.865Z,3.90
2018-05-05T16:29:35.170Z,2.10
2018-05-05T16:32:01.470Z,2.70
2018-05-05T16:34:27.764Z,9.13
2018-05-05T16:36:54.061Z,9.93
2018-05-05T16:39:20.389Z,3.80
2018-05-05T16:41:47.246Z,2.23
2018-05-05T16:44:13.565Z,1.97
2018-05-05T16:46:39.857Z,2.37
2018-05-05T16:49:06.882Z,2.70
2018-05-05T16:51:33.906Z,3.67
2018-05-05T16:54:00.250Z,2.67
2018-05-05T16:56:27.289Z,1.93
2018-05-05T16:58:53.592Z,7.20
2018-05-05T17:01:20.598Z,5.90
2018-05-05T17:03:47.621Z,2.70
2018-05-05T17:06:13.994Z,2.70
2018-05-05T17:08:40.270Z,4.00
2018-05-05T17:11:06.638Z,3.27
2018-05-05T17:13:33.658Z,10.97
2018-05-05T17:15:59.942Z,5.10
2018-05-05T17:18:26.225Z,5.90
2018-05-05T17:20:52.506Z,3.17
2018-05-05T17:23:18.789Z,3.83
2018-05-05T17:25:45.910Z,4.83
2018-05-05T17:28:12.936Z,5.90
2018-05-05T17:30:39.258Z,3.67
2018-05-05T17:33:05.565Z,3.73
2018-05-05T17:35:31.890Z,3.53
2018-05-05T17:37:58.930Z,4.67
2018-05-05T17:40:26.004Z,3.87
2018-05-05T17:42:53.274Z,3.97
2018-05-05T17:45:19.556Z,3.97
2018-05-05T17:47:45.847Z,3.17
2018-05-05T17:50:12.121Z,4.47
2018-05-05T17:52:38.442Z,3.90
2018-05-05T17:55:04.746Z,4.27
2018-05-05T17:57:31.101Z,4.87
2018-05-05T17:59:57.543Z,4.13
2018-05-05T18:02:23.860Z,3.87
2018-05-05T18:04:50.154Z,4.30
2018-05-05T18:07:16.466Z,3.93
2018-05-05T18:09:42.815Z,4.43
2018-05-05T18:12:09.090Z,4.90
2018-05-05T18:14:35.398Z,3.63
2018-05-05T18:17:01.762Z,4.60
2018-05-05T18:19:28.843Z,4.13
2018-05-05T18:21:56.048Z,4.03
2018-05-05T18:24:22.341Z,7.40
2018-05-05T18:26:48.621Z,5.70
2018-05-05T18:29:14.939Z,7.73
2018-05-05T18:31:41.234Z,5.70
2018-05-05T18:34:07.567Z,7.80
2018-05-05T18:36:33.828Z,6.00
2018-05-05T18:39:00.117Z,5.10
2018-05-05T18:41:26.387Z,4.83
2018-05-05T18:43:52.723Z,5.67
2018-05-05T18:46:19.023Z,6.13
2018-05-05T18:48:45.410Z,4.90
2018-05-05T18:51:11.693Z,11.50
2018-05-05T18:53:37.995Z,6.27
2018-05-05T18:56:04.339Z,5.40
2018-05-05T18:58:30.630Z,4.37
2018-05-05T19:00:57.057Z,5.83
2018-05-05T19:03:24.111Z,5.40
2018-05-05T19:05:50.417Z,5.67
2018-05-05T19:08:16.776Z,5.87
2018-05-05T19:10:43.846Z,9.07
2018-05-05T19:13:10.158Z,8.87
2018-05-05T19:15:37.246Z,5.10
2018-05-05T19:18:03.547Z,12.70
2018-05-05T19:20:29.859Z,10.77
2018-05-05T19:22:56.182Z,6.50
2018-05-05T19:25:23.239Z,8.13
2018-05-05T19:27:50.263Z,12.43
2018-05-05T19:30:16.523Z,10.40
2018-05-05T19:32:43.566Z,8.10
2018-05-05T19:35:10.607Z,12.80
2018-05-05T19:37:37.669Z,17.27
2018-05-05T19:40:03.963Z,10.27
2018-05-05T19:42:30.278Z,7.40
2018-05-05T19:44:56.620Z,10.03
2018-05-05T19:47:22.934Z,8.87
2018-05-05T19:49:49.230Z,7.37
2018-05-05T19:52:15.527Z,11.70
2018-05-05T19:54:41.814Z,11.63
2018-05-05T19:57:08.118Z,10.43
2018-05-05T19:59:35.150Z,10.80
2018-05-05T20:02:02.190Z,11.00
2018-05-05T20:04:28.511Z,9.13
2018-05-05T20:06:58.075Z,8.30
2018-05-05T20:09:24.386Z,11.90
2018-05-05T20:11:51.478Z,10.13
2018-05-05T20:14:17.763Z,9.33
2018-05-05T20:16:44.052Z,11.80
2018-05-05T20:19:10.329Z,10.60
2018-05-05T20:21:37.343Z,8.30
2018-05-05T20:24:03.656Z,12.10
2018-05-05T20:26:29.995Z,27.00
2018-05-05T20:28:56.327Z,30.37
2018-05-05T20:31:22.641Z,36.83
2018-05-05T20:33:48.962Z,39.80
2018-05-05T20:36:15.261Z,38.83
2018-05-05T20:38:42.371Z,36.17
2018-05-05T20:41:08.666Z,40.00
2018-05-05T20:43:34.964Z,29.13
2018-05-05T20:46:01.442Z,27.37
2018-05-05T20:48:27.737Z,28.60
2018-05-05T20:50:54.174Z,22.40
2018-05-05T20:53:20.394Z,19.70
2018-05-05T20:55:46.697Z,19.43
2018-05-05T20:58:13.009Z,14.47
2018-05-05T21:00:39.309Z,13.77
2018-05-05T21:03:05.589Z,15.77
2018-05-05T21:05:32.636Z,19.00
2018-05-05T21:07:58.948Z,16.07
2018-05-05T21:10:25.258Z,16.30
2018-05-05T21:12:51.609Z,13.80
2018-05-05T21:15:17.898Z,6.80
2018-05-05T21:17:44.210Z,8.67
2018-05-05T21:20:10.594Z,8.70
2018-05-05T21:22:36.949Z,9.20
2018-05-05T21:25:04.062Z,22.33
2018-05-05T21:27:30.350Z,10.40
2018-05-05T21:29:57.362Z,14.13
2018-05-05T21:32:23.635Z,15.00
2018-05-05T21:34:50.670Z,13.80
2018-05-05T21:37:17.683Z,16.13
2018-05-05T21:39:43.973Z,14.17
2018-05-05T21:42:10.313Z,9.57
2018-05-05T21:44:36.670Z,13.50
2018-05-05T21:47:03.557Z,17.47
2018-05-05T21:49:30.638Z,8.70
2018-05-05T21:51:56.988Z,8.40
2018-05-05T21:54:24.078Z,14.07
2018-05-05T21:56:50.418Z,15.20
2018-05-05T21:59:16.792Z,17.27
2018-05-05T22:01:43.106Z,16.03
2018-05-05T22:04:09.435Z,14.40
2018-05-05T22:06:35.818Z,7.90
2018-05-05T22:09:02.150Z,8.73
2018-05-05T22:11:29.115Z,7.17
2018-05-05T22:13:56.195Z,5.30
2018-05-05T22:16:22.520Z,5.20
2018-05-05T22:18:48.889Z,5.97
2018-05-05T22:21:15.190Z,4.70
2018-05-05T22:23:41.539Z,5.03
2018-05-05T22:26:07.834Z,5.87
2018-05-05T22:28:34.401Z,4.97
2018-05-05T22:31:00.675Z,6.53
2018-05-05T22:33:27.721Z,5.10
2018-05-05T22:35:54.009Z,5.97
2018-05-05T22:38:20.335Z,5.67
2018-05-05T22:40:46.721Z,4.90
2018-05-05T22:43:13.054Z,4.07
2018-05-05T22:45:40.143Z,2.70
2018-05-05T22:48:06.899Z,3.43
2018-05-05T22:50:33.285Z,3.43
2018-05-05T22:52:59.606Z,2.97
2018-05-05T22:55:25.897Z,3.33
2018-05-05T22:57:52.271Z,4.20
2018-05-05T23:00:18.594Z,3.30
2018-05-05T23:02:44.930Z,3.80
2018-05-05T23:05:11.969Z,4.67
2018-05-05T23:07:39.038Z,3.23
2018-05-05T23:10:05.361Z,4.43
2018-05-05T23:12:32.406Z,3.60
2018-05-05T23:14:59.471Z,4.37
2018-05-05T23:17:25.816Z,3.23
2018-05-05T23:19:52.142Z,4.00
2018-05-05T23:22:18.470Z,3.83
2018-05-05T23:24:44.751Z,5.00
2018-05-05T23:27:11.076Z,4.27
2018-05-05T23:29:37.413Z,5.97
2018-05-05T23:32:03.689Z,4.80
2018-05-05T23:34:29.989Z,2.90
2018-05-05T23:36:56.285Z,4.77
2018-05-05T23:39:22.580Z,4.87
2018-05-05T23:41:48.858Z,3.47
2018-05-05T23:44:15.177Z,4.77
2018-05-05T23:46:41.443Z,4.50
2018-05-05T23:49:07.786Z,5.30
2018-05-05T23:51:34.114Z,4.00
2018-05-05T23:54:01.135Z,7.60
2018-05-05T23:56:27.480Z,6.40
2018-05-05T23:58:53.774Z,5.80
